Flight Track Log - Related Links

Times and Time Zones

All times are in EDT time to prevent confusion due to time zone crossing. See the PDT4236 flight status page for this flight to view local times or setup timezone preferences in your user account.

Time Position Orientation Groundspeed Altitude Reporting Facility
EDT Latitude Longitude Course Direction KTS MPH feet Rate Location/Type
Tue 02:36:06 PM 35.1975 -80.9558 340° North 134 154 1,300  Level Atlanta Center
Tue 02:36:24 PM 35.1872 -80.9611 203° Southwest 145 167 1,700 1,519 Climbing Atlanta Center
Tue 02:37:25 PM 35.1886 -81.0144 272° West 169 194 3,300 1,475 Climbing Atlanta Center
Tue 02:38:00 PM 35.3619 -81.0167 North  Level FlightAware Approximate
Tue 02:38:26 PM 35.1983 -81.0700 282° West 164 189 4,700  Level Atlanta Center
Tue 02:39:00 PM 35.4282 -81.0414 347° North  Level FlightAware Approximate
Tue 02:39:27 PM 35.2244 -81.1150 305° West 186 214 6,100  Level Atlanta Center
Tue 02:40:00 PM 35.4961 -81.0608 347° North  Level FlightAware Approximate
Tue 02:40:08 PM 35.2636 -81.0958 22° Northeast 178 205 7,000  Level Atlanta Center
Tue 02:41:00 PM 35.5589 -81.0947 340° North  Level FlightAware Approximate
Tue 02:41:08 PM 35.3028 -81.0714 27° Northeast 189 217 8,500  Level Atlanta Center
Tue 02:42:08 PM 35.3503 -81.0594 12° North 180 207 9,800 1,150 Climbing Atlanta Center
Tue 02:43:08 PM 35.4047 -81.0678 353° North 180 207 10,800 600 Climbing Atlanta Center
Tue 02:44:08 PM 35.4633 -81.0733 356° North 193 222 11,000 100 Climbing Atlanta Center
Tue 02:45:08 PM 35.5283 -81.0864 351° North 221 254 11,000 450 Level Atlanta Center
Tue 02:46:08 PM 35.5917 -81.1119 342° North 229 264 11,900 950 Climbing Atlanta Center
Tue 02:47:08 PM 35.6483 -81.1331 343° North 222 255 12,900 950 Climbing Atlanta Center
Tue 02:48:08 PM 35.7053 -81.1567 341° North 217 250 13,800 800 Climbing Atlanta Center
Tue 02:49:08 PM 35.7622 -81.1803 341° North 212 244 14,500 750 Climbing Atlanta Center
Tue 02:50:08 PM 35.8189 -81.2039 341° North 212 244 15,300 850 Climbing Atlanta Center
Tue 02:51:08 PM 35.8739 -81.2328 337° Northwest 217 250 16,200 850 Climbing Atlanta Center
Tue 02:52:08 PM 35.9308 -81.2614 338° Northwest 212 244 17,000 800 Climbing Atlanta Center
Tue 02:53:08 PM 35.9836 -81.2903 336° Northwest 212 244 17,800 600 Climbing Atlanta Center
Tue 02:54:08 PM 36.0406 -81.3194 338° Northwest 212 244 18,200 600 Climbing Atlanta Center
Tue 02:55:08 PM 36.0892 -81.3433 338° Northwest 212 244 19,000 650 Climbing Atlanta Center
Tue 02:56:08 PM 36.1397 -81.3725 335° Northwest 212 244 19,500 550 Climbing Atlanta Center
Tue 02:57:08 PM 36.1967 -81.3989 339° North 212 244 20,100 550 Climbing Atlanta Center
Tue 02:58:08 PM 36.2494 -81.4281 336° Northwest 207 238 20,600 500 Climbing Atlanta Center
Tue 02:59:08 PM 36.3042 -81.4547 339° North 207 238 21,100 500 Climbing Atlanta Center
Tue 03:00:08 PM 36.3569 -81.4839 336° Northwest 207 238 21,600 400 Climbing Atlanta Center
Tue 03:01:08 PM 36.4161 -81.5131 338° Northwest 207 238 21,900 200 Climbing Atlanta Center
Tue 03:02:08 PM 36.4731 -81.5447 336° Northwest 213 245 22,000 50 Climbing Atlanta Center
Tue 03:03:08 PM 36.5278 -81.5714 339° North 225 259 22,000 -50 Level Atlanta Center
Tue 03:04:08 PM 36.5911 -81.6058 336° Northwest 236 272 21,900  Descending Atlanta Center
Tue 03:06:25 PM 36.7394 -81.6819 338° Northwest 246 283 22,000  Climbing Indianapolis Center
Tue 03:07:27 PM 36.8036 -81.7167 337° Northwest 250 288 21,900  Descending Indianapolis Center
Tue 03:08:28 PM 36.8672 -81.7500 337° Northwest 248 285 22,000 49 Climbing Indianapolis Center
Tue 03:09:30 PM 36.9306 -81.7833 337° Northwest 246 283 22,000  Level Indianapolis Center
Tue 03:10:32 PM 36.9947 -81.8172 337° Northwest 249 287 22,000  Level Indianapolis Center
Tue 03:11:34 PM 37.0692 -81.8572 337° Northwest 251 289 22,000  Level Indianapolis Center
Tue 03:12:35 PM 37.1328 -81.8908 337° Northwest 249 287 22,000 -293 Level Indianapolis Center
Tue 03:13:37 PM 37.1969 -81.9256 337° Northwest 248 285 21,400 -774 Descending Indianapolis Center
Tue 03:14:39 PM 37.2700 -81.9628 338° Northwest 273 314 20,400 -968 Descending Indianapolis Center
Tue 03:15:41 PM 37.3444 -82.0033 337° Northwest 288 331 19,400 -968 Descending Indianapolis Center
Tue 03:16:43 PM 37.4042 -82.0711 318° Northwest 288 331 18,400 -1,024 Descending Indianapolis Center
Tue 03:17:44 PM 37.4794 -82.1433 323° Northwest 292 336 17,300 -1,024 Descending Indianapolis Center
Tue 03:18:46 PM 37.5456 -82.2050 324° Northwest 296 341 16,300 -1,016 Descending Indianapolis Center
Tue 03:19:48 PM 37.6111 -82.2669 323° Northwest 296 341 15,200 -1,016 Descending Indianapolis Center
Tue 03:20:50 PM 37.6772 -82.3319 322° Northwest 299 344 14,200 -1,065 Descending Indianapolis Center
Tue 03:21:52 PM 37.7444 -82.3939 324° Northwest 299 344 13,000 -1,452 Descending Indianapolis Center
Tue 03:22:54 PM 37.8189 -82.4592 325° Northwest 286 329 11,200 -1,597 Descending Indianapolis Center
Tue 03:23:56 PM 37.8794 -82.5153 324° Northwest 274 315 9,700 -1,452 Descending Indianapolis Center
Tue 03:24:58 PM 37.9475 -82.5508 338° Northwest 273 314 8,200 -1,463 Descending Indianapolis Center
Tue 03:25:59 PM 38.0231 -82.5464 North 273 314 6,700 -1,463 Descending Indianapolis Center
Tue 03:27:01 PM 38.0964 -82.5514 357° North 265 305 5,200 -1,210 Descending Indianapolis Center
Tue 03:28:03 PM 38.1658 -82.5650 351° North 256 295 4,200 -1,016 Descending Indianapolis Center
Tue 03:29:05 PM 38.2419 -82.5797 351° North 240 276 3,100 -1,065 Descending Indianapolis Center

Login

Don't have an account? Register now (free) for customized features, flight alerts, and more!